Detall de PIREP

Printer-friendly versionPDF version

[2013/08/17 16:15:00]
Flight IATA:CT1001
Pilot Number:042
Company ICAO:CAT
Aircraft Type:F70/A
PAX:21
Aircraft Registration:PFJ
Departing Airport: LEMH
Destination Airport: LFKJ
Alternate Airport:LIEA
Online: VATSIM
Route:MEROS B16 LUMAS UT16 TINOT
Flight Level:F240
No Slew and time accel
No pause
Crash detect
Detect pilot in Cockpit between each 30 and 45 minutes
16:15 Zero fuel Weight: 72666 Lbs, Fuel Weight: 22691 Lbs
16:15 VATSIM:LEMH 171600Z 06008KT 020V100 9999 FEW018 26/20 Q1017
16:15 VATSIM:LFKJ 171600Z 20007KT 9999 FEW053 30/19 Q1015 NOSIG
16:16 VOICE CATALONIAN/MEDITERRANEAN ODYSSEY
16:20 Parking Brakes off
16:24 Take-off
16:24 Take off Weight: 95022 Lbs
16:24 Wind: 035º @ 008 Knots Heading: 010º
16:24 POS N39º 52´ 03´´ E004º 13´ 10´´
16:24 Gear Up: 169 Knots
16:24 Flaps:2 at 169 Knots
16:24 Flaps:1 at 178 Knots
16:24 Flaps:0 at 195 Knots
16:39 Wind:051º@003 Knots Heading: 011º Ground Speed: 368 Knots Altitude 20075 ft
16:43 TOC
16:43 Fuel Weight: 20172 Lb
16:54 Wind:331º@029 Knots Heading: 086º Ground Speed: 451 Knots Altitude 24087 ft
17:08 TOD
17:08 Fuel Weight: 17723 Lb
17:09 Wind:222º@005 Knots Heading: 109º Ground Speed: 450 Knots Altitude 22975 ft
17:14 Flaps:1 at 216 Knots
17:19 Flaps:2 at 193 Knots
17:19 Flaps:3 at 177 Knots
17:20 Flaps:4 at 169 Knots
17:20 Gear Down: 163 Knots
17:22 TouchDown:Rate -136 ft/min Speed: 116 Knots
17:22 VATSIM:LFKJ 171700Z 20007KT 9999 FEW053 29/20 Q1015 NOSIG
17:22 Land
17:22 Wind:200º@007 Knots
17:22 Heading: 203º
17:22 Flight Duration: 00:58
17:22 Landing Weight: 89786 Lbs
17:22 POS N41º 55´ 18´´ E008º 48´ 04´´
17:25 Parking brakes on
17:25 Block to Block Duration: 01:05
17:25 Final Fuel: 16962 Lbls
17:25 Spent Fuel: 5729 Lbls
17:25 Flight Length: 353 NM
17:25 TOD Land Length: 62 NM

Exportar CSV

Powered by Drupal - Modified by Danger4k